Time;durP1;ratioP1;P1;durP2;ratioP2;P2;SDS_P1;SDS_P2;PMS_P1;PMS_P2;Temp;Humidity;BMP_temperature;BMP_pressure;BME280_temperature;BME280_humidity;BME280_pressure;Samples;Min_cycle;Max_cycle;Signal;HPM_P1;HPM_P2
2024/01/30 00:00:37;;;;;;;4.13;3.40;;;;;;;5.87;53.23;96532.31;5112669;28;20185;-64
2024/01/30 00:03:05;;;;;;;3.83;3.53;;;;;;;5.85;53.37;96531.56;5112352;28;20279;-65
2024/01/30 00:05:31;;;;;;;4.10;3.67;;;;;;;5.84;53.36;96533.28;5112560;28;20215;-66
2024/01/30 00:08:00;;;;;;;4.23;3.40;;;;;;;5.83;53.26;96534.16;5111288;28;20288;-66
2024/01/30 00:10:26;;;;;;;3.20;2.90;;;;;;;5.82;53.36;96524.06;5112203;28;20177;-65
2024/01/30 00:12:53;;;;;;;4.87;3.30;;;;;;;5.79;53.33;96527.56;5112392;28;20189;-65
2024/01/30 00:15:20;;;;;;;3.53;3.23;;;;;;;5.75;53.55;96520.97;5112502;28;20625;-64
2024/01/30 00:17:47;;;;;;;4.17;3.63;;;;;;;5.57;53.34;96493.78;5111297;28;20181;-64
2024/01/30 00:20:14;;;;;;;4.07;3.43;;;;;;;5.76;53.33;96535.28;5112286;28;20188;-64
2024/01/30 00:22:40;;;;;;;3.50;3.20;;;;;;;5.74;53.38;96534.53;5112494;28;20349;-66
2024/01/30 00:25:09;;;;;;;3.87;3.47;;;;;;;5.72;53.38;96534.59;5111875;28;20212;-64
2024/01/30 00:27:36;;;;;;;4.40;3.77;;;;;;;5.65;53.31;96524.75;5112192;28;20185;-64
2024/01/30 00:30:03;;;;;;;4.03;3.63;;;;;;;5.53;53.27;96510.84;5111973;28;20185;-63
2024/01/30 00:32:30;;;;;;;3.90;3.50;;;;;;;5.68;53.34;96530.53;5112458;28;20200;-64
2024/01/30 00:34:56;;;;;;;3.90;3.40;;;;;;;5.65;53.49;96529.81;5111923;28;20185;-64
2024/01/30 00:37:24;;;;;;;5.03;3.37;;;;;;;5.38;53.16;96486.91;5111997;28;20189;-64
2024/01/30 00:39:50;;;;;;;3.93;3.50;;;;;;;5.66;53.38;96528.94;5111637;28;20192;-65
2024/01/30 00:42:19;;;;;;;3.60;3.30;;;;;;;5.50;53.35;96510.97;5112085;28;20193;-65
2024/01/30 00:44:46;;;;;;;4.13;3.73;;;;;;;5.64;53.22;96526.47;5111505;28;20185;-65
2024/01/30 00:47:12;;;;;;;4.77;3.87;;;;;;;5.53;53.49;96505.78;5111776;28;20192;-65
2024/01/30 00:49:39;;;;;;;4.70;3.77;;;;;;;5.62;53.35;96524.88;5111390;28;20260;-64
2024/01/30 00:52:06;;;;;;;5.37;3.73;;;;;;;5.61;53.46;96531.66;5111657;28;20207;-66
2024/01/30 00:54:33;;;;;;;5.03;3.40;;;;;;;5.60;53.38;96527.47;5111570;28;20185;-63
2024/01/30 00:57:00;;;;;;;3.50;3.20;;;;;;;5.58;53.33;96523.38;5111378;28;20224;-63
2024/01/30 00:59:28;;;;;;;3.37;3.07;;;;;;;5.49;53.44;96507.63;5111111;28;20196;-64
2024/01/30 01:01:55;;;;;;;4.03;3.63;;;;;;;5.61;53.46;96529.13;5111385;28;20645;-65
2024/01/30 01:04:22;;;;;;;4.80;3.77;;;;;;;5.46;53.38;96506.91;5107479;28;20239;-65
2024/01/30 01:06:49;;;;;;;3.67;3.30;;;;;;;5.48;53.40;96505.13;5091400;28;20225;-62
2024/01/30 01:09:15;;;;;;;3.83;3.50;;;;;;;5.59;53.49;96525.81;5111109;28;20197;-63
2024/01/30 01:11:42;;;;;;;4.37;3.80;;;;;;;5.59;53.53;96520.75;5111195;28;20595;-64
2024/01/30 01:14:09;;;;;;;3.60;3.30;;;;;;;5.59;53.46;96519.94;5111155;28;20654;-62
2024/01/30 01:16:37;;;;;;;4.33;3.30;;;;;;;5.58;53.47;96523.38;5111168;28;20189;-63
2024/01/30 01:19:04;;;;;;;4.30;3.77;;;;;;;5.58;53.54;96524.19;5111011;28;20185;-64
2024/01/30 01:21:31;;;;;;;6.87;3.40;;;;;;;5.57;53.59;96524.22;5110657;28;20189;-65
2024/01/30 01:23:57;;;;;;;3.83;3.43;;;;;;;5.43;53.63;96507.84;5110776;28;20193;-65
2024/01/30 01:26:24;;;;;;;4.17;3.53;;;;;;;5.54;53.52;96522.66;5110590;28;20228;-64
2024/01/30 01:28:51;;;;;;;3.67;3.33;;;;;;;5.53;53.63;96526.09;5110568;28;20646;-64
2024/01/30 01:31:18;;;;;;;3.77;3.43;;;;;;;5.52;53.63;96524.41;5111006;28;20261;-64
2024/01/30 01:33:46;;;;;;;4.27;3.53;;;;;;;5.53;53.64;96526.91;5110791;28;20226;-64
2024/01/30 01:36:14;;;;;;;3.70;3.33;;;;;;;5.54;53.69;96522.66;5110596;28;20196;-64
2024/01/30 01:38:41;;;;;;;7.20;3.83;;;;;;;5.54;53.64;96525.19;5110563;28;20563;-64
2024/01/30 01:41:08;;;;;;;3.20;2.90;;;;;;;5.36;53.72;96495.50;5110858;28;20581;-65
2024/01/30 01:43:35;;;;;;;5.43;3.63;;;;;;;5.53;53.52;96526.91;5110732;28;20185;-65
2024/01/30 01:46:02;;;;;;;3.30;2.97;;;;;;;5.53;53.57;96531.16;5110495;28;20207;-64
2024/01/30 01:48:29;;;;;;;3.57;3.27;;;;;;;5.53;53.50;96521.00;5110901;28;20185;-64
2024/01/30 01:50:58;;;;;;;3.60;3.30;;;;;;;5.31;53.63;96492.28;5110771;28;20185;-64
2024/01/30 01:53:24;;;;;;;3.60;3.30;;;;;;;5.51;53.56;96525.31;5109956;28;20200;-65
2024/01/30 01:55:52;;;;;;;4.73;3.17;;;;;;;5.44;53.62;96509.53;5110665;28;20212;-63
2024/01/30 01:58:21;;;;;;;5.00;4.03;;;;;;;5.48;53.60;96528.81;5111514;28;20268;-64
2024/01/30 02:00:48;;;;;;;4.27;3.47;;;;;;;5.49;53.70;96527.09;5120615;28;20292;-64
2024/01/30 02:03:17;;;;;;;3.63;3.30;;;;;;;5.47;53.73;96529.66;5111915;28;20211;-65
2024/01/30 02:05:44;;;;;;;3.77;3.33;;;;;;;5.45;53.60;96523.84;5110221;28;20221;-62
2024/01/30 02:08:13;;;;;;;4.60;3.70;;;;;;;5.44;53.62;96534.91;5110182;28;20189;-65
2024/01/30 02:10:39;;;;;;;11.30;4.93;;;;;;;5.38;53.54;96526.69;5110047;28;20193;-64
2024/01/30 02:13:06;;;;;;;3.93;3.30;;;;;;;5.41;53.56;96531.66;5110321;28;20189;-62
2024/01/30 02:15:33;;;;;;;4.00;3.60;;;;;;;5.45;53.51;96539.06;5110050;28;20189;-65
2024/01/30 02:18:00;;;;;;;4.20;3.40;;;;;;;5.45;53.72;96528.91;5109703;28;20185;-64
2024/01/30 02:20:30;;;;;;;4.10;3.67;;;;;;;5.35;53.53;96509.03;5110237;28;20189;-66
2024/01/30 02:23:01;;;;;;;3.90;3.30;;;;;;;5.52;53.65;96530.31;5109949;28;20204;-65
2024/01/30 02:25:43;;;;;;;4.30;3.17;;;;;;;5.56;53.31;96530.19;5109986;28;20875;-65
2024/01/30 02:28:10;;;;;;;7.03;3.77;;;;;;;4.97;53.50;96432.78;5109960;28;20211;-64
2024/01/30 02:30:37;;;;;;;4.13;3.60;;;;;;;5.60;53.52;96530.00;5109863;28;20249;-63
2024/01/30 02:33:04;;;;;;;4.40;3.40;;;;;;;5.61;53.35;96521.50;5110153;28;20642;-65
2024/01/30 02:35:31;;;;;;;4.07;3.67;;;;;;;5.64;53.31;96525.63;5110640;28;20707;-65
2024/01/30 02:37:59;;;;;;;4.73;3.77;;;;;;;5.66;53.39;96527.25;5110529;28;20280;-65
2024/01/30 02:40:26;;;;;;;4.03;3.37;;;;;;;5.69;53.22;96529.63;5110307;28;20249;-64
2024/01/30 02:42:52;;;;;;;6.40;3.70;;;;;;;5.65;53.11;96517.94;5110478;28;20201;-66
2024/01/30 02:45:19;;;;;;;3.27;2.97;;;;;;;5.49;53.09;96489.84;5110558;28;20185;-66
2024/01/30 02:47:47;;;;;;;3.40;3.10;;;;;;;5.69;53.15;96521.19;5110475;28;20185;-64
2024/01/30 02:50:14;;;;;;;5.07;3.97;;;;;;;5.77;53.01;96534.41;5109644;28;20229;-65
2024/01/30 02:52:43;;;;;;;3.60;3.30;;;;;;;5.78;52.97;96530.97;5109741;28;20280;-64
2024/01/30 02:55:13;;;;;;;3.97;3.20;;;;;;;5.48;53.10;96479.75;5109627;28;20238;-65
2024/01/30 02:57:40;;;;;;;3.50;3.20;;;;;;;5.83;52.94;96533.31;5109818;28;20236;-63
2024/01/30 03:00:09;;;;;;;4.47;3.17;;;;;;;5.85;52.82;96534.91;5109523;28;20199;-65
2024/01/30 03:02:36;;;;;;;4.70;3.30;;;;;;;5.77;52.88;96520.00;5109618;28;20254;-64
2024/01/30 03:05:03;;;;;;;3.27;2.97;;;;;;;5.87;52.82;96535.69;5109595;28;20181;-64
2024/01/30 03:07:30;;;;;;;3.47;3.07;;;;;;;5.89;52.78;96525.47;5109650;28;20244;-64
2024/01/30 03:09:57;;;;;;;3.47;3.10;;;;;;;5.91;52.94;96523.66;5109591;28;20704;-64
2024/01/30 03:12:25;;;;;;;3.20;3.00;;;;;;;5.85;52.86;96512.06;5099044;28;20190;-63
2024/01/30 03:14:52;;;;;;;3.20;2.90;;;;;;;5.93;52.82;96524.47;5089096;28;20186;-63
2024/01/30 03:17:19;;;;;;;4.00;3.10;;;;;;;5.94;52.66;96529.47;5089390;28;20243;-63
2024/01/30 03:19:45;;;;;;;2.97;2.77;;;;;;;5.95;52.77;96530.31;5089466;28;20197;-64
2024/01/30 03:22:12;;;;;;;3.43;3.13;;;;;;;5.89;52.71;96512.75;5088956;28;20689;-63
2024/01/30 03:24:39;;;;;;;3.50;3.20;;;;;;;5.95;52.57;96525.22;5089458;28;20194;-62
2024/01/30 03:27:06;;;;;;;3.00;2.77;;;;;;;5.91;52.67;96513.50;5089212;28;20209;-64
2024/01/30 03:29:34;;;;;;;3.53;3.20;;;;;;;5.85;52.68;96504.44;5089454;28;20212;-65
2024/01/30 03:32:01;;;;;;;4.70;3.10;;;;;;;5.95;52.68;96525.22;5089058;28;20197;-66
2024/01/30 03:34:27;;;;;;;3.70;3.13;;;;;;;5.86;52.66;96503.53;5089696;28;20178;-66
2024/01/30 03:36:54;;;;;;;3.57;3.27;;;;;;;5.98;52.44;96515.75;5088984;28;20194;-66
2024/01/30 03:39:21;;;;;;;3.80;3.17;;;;;;;5.98;52.51;96515.75;5089403;28;20196;-64
2024/01/30 03:41:48;;;;;;;3.67;3.37;;;;;;;5.98;52.37;96512.41;5089610;28;20193;-65
2024/01/30 03:44:14;;;;;;;3.17;2.87;;;;;;;5.83;52.41;96490.16;5093163;28;20182;-65
2024/01/30 03:46:42;;;;;;;3.33;3.03;;;;;;;5.98;52.42;96509.88;5092642;28;20213;-65
2024/01/30 03:49:11;;;;;;;3.90;3.17;;;;;;;5.98;52.34;96518.31;5092685;28;20197;-63
2024/01/30 03:51:37;;;;;;;3.70;3.17;;;;;;;5.98;52.19;96513.22;5092512;28;20196;-65
2024/01/30 03:54:04;;;;;;;3.93;3.43;;;;;;;5.94;52.04;96498.19;5092076;28;20620;-64
2024/01/30 03:56:31;;;;;;;4.20;3.50;;;;;;;6.00;52.09;96508.06;5092442;28;20221;-65
2024/01/30 03:58:58;;;;;;;3.10;2.50;;;;;;;6.01;52.00;96509.75;5092775;28;20197;-68
2024/01/30 04:01:25;;;;;;;3.23;2.93;;;;;;;6.01;51.94;96509.75;5092369;28;20213;-64
2024/01/30 04:03:53;;;;;;;3.37;3.07;;;;;;;5.99;52.01;96504.72;5092437;28;20197;-66
2024/01/30 04:06:20;;;;;;;2.77;2.53;;;;;;;5.96;51.92;96499.78;5092409;28;20218;-65
2024/01/30 04:08:47;;;;;;;3.40;3.10;;;;;;;5.96;51.81;96504.88;5092129;28;20197;-66
2024/01/30 04:11:13;;;;;;;3.33;2.63;;;;;;;5.30;51.74;96400.16;5092226;28;20234;-64
2024/01/30 04:13:42;;;;;;;3.40;2.90;;;;;;;5.72;51.83;96471.13;5092061;28;20652;-65
2024/01/30 04:16:09;;;;;;;3.30;3.00;;;;;;;5.54;51.66;96441.44;5092241;28;20197;-63
2024/01/30 04:18:36;;;;;;;3.20;3.00;;;;;;;5.92;51.80;96505.88;5091855;28;20185;-65
2024/01/30 04:21:04;;;;;;;2.70;2.50;;;;;;;5.93;51.68;96506.69;5091978;28;20247;-64
2024/01/30 04:23:31;;;;;;;3.90;3.03;;;;;;;5.92;51.79;96505.88;5092010;28;20192;-64
2024/01/30 04:25:58;;;;;;;3.20;2.80;;;;;;;5.92;51.68;96505.88;5092239;28;20189;-65
2024/01/30 04:28:25;;;;;;;3.00;2.70;;;;;;;5.93;51.63;96506.69;5092128;28;20590;-66
2024/01/30 04:30:51;;;;;;;2.97;2.70;;;;;;;5.93;51.63;96511.78;5091739;28;20247;-65
2024/01/30 04:33:19;;;;;;;3.77;3.47;;;;;;;5.93;51.58;96511.78;5092385;28;20208;-65
2024/01/30 04:35:45;;;;;;;2.93;2.67;;;;;;;5.92;51.78;96512.69;5092642;28;20221;-66
2024/01/30 04:38:14;;;;;;;4.20;2.70;;;;;;;5.89;51.57;96507.69;5098014;28;20186;-66
2024/01/30 04:40:41;;;;;;;2.90;2.60;;;;;;;5.93;51.59;96510.06;5093594;28;20646;-65
2024/01/30 04:43:10;;;;;;;3.03;2.73;;;;;;;5.92;51.59;96510.97;5091983;28;20178;-65
2024/01/30 04:45:37;;;;;;;2.93;2.70;;;;;;;5.87;51.63;96509.44;5091522;28;20244;-66
2024/01/30 04:48:04;;;;;;;3.30;2.97;;;;;;;5.88;51.44;96506.88;5091706;28;20229;-65
2024/01/30 04:50:31;;;;;;;2.93;2.53;;;;;;;5.93;51.57;96521.94;5091287;28;20194;-67
2024/01/30 04:52:57;;;;;;;4.07;3.07;;;;;;;5.76;51.51;96502.28;5091304;28;20197;-66
2024/01/30 04:55:26;;;;;;;3.53;3.13;;;;;;;5.81;51.54;96515.63;5090882;28;20197;-65
2024/01/30 04:57:52;;;;;;;3.80;3.23;;;;;;;5.84;51.49;96525.66;5091421;28;20307;-66
2024/01/30 05:00:20;;;;;;;3.10;2.80;;;;;;;5.84;51.58;96524.84;5091190;28;20208;-66
2024/01/30 05:02:47;;;;;;;2.83;2.63;;;;;;;5.88;51.48;96539.88;5091548;28;20589;-67
2024/01/30 05:05:14;;;;;;;3.13;2.83;;;;;;;5.81;51.45;96530.03;5091296;28;20186;-63
2024/01/30 05:07:42;;;;;;;2.93;2.73;;;;;;;5.87;51.53;96539.91;5091030;28;20263;-64
2024/01/30 05:10:10;;;;;;;3.07;2.87;;;;;;;5.80;51.56;96534.28;5090996;28;20201;-64
2024/01/30 05:12:39;;;;;;;3.07;2.83;;;;;;;5.83;51.52;96551.94;5090841;28;20189;-66
2024/01/30 05:15:06;;;;;;;3.00;2.80;;;;;;;5.81;51.47;96540.19;5109870;28;20622;-64
2024/01/30 05:17:34;;;;;;;4.13;2.97;;;;;;;5.73;51.41;96527.78;5110933;28;20553;-65
2024/01/30 05:20:01;;;;;;;3.57;3.20;;;;;;;5.75;51.47;96547.16;5110914;28;20217;-64
2024/01/30 05:22:27;;;;;;;4.87;3.17;;;;;;;5.72;51.81;96546.47;5111063;28;20250;-66
2024/01/30 05:24:54;;;;;;;5.17;3.30;;;;;;;5.69;51.52;96552.47;5113988;27;20193;-65
2024/01/30 05:27:21;;;;;;;4.67;3.20;;;;;;;5.66;51.45;96546.72;5111050;28;20224;-65
2024/01/30 05:29:49;;;;;;;3.23;2.93;;;;;;;5.64;51.53;96549.31;5110917;28;20189;-66
2024/01/30 05:32:16;;;;;;;3.50;3.20;;;;;;;5.62;51.62;96542.66;5110715;28;20284;-66
2024/01/30 05:34:43;;;;;;;4.00;3.53;;;;;;;5.59;51.66;96541.06;5111015;28;20181;-64
2024/01/30 05:37:14;;;;;;;3.37;3.07;;;;;;;5.38;51.76;96517.34;5110202;28;20190;-64
2024/01/30 05:39:40;;;;;;;3.73;3.23;;;;;;;5.49;51.70;96535.53;5110389;28;20207;-66
2024/01/30 05:42:07;;;;;;;3.73;3.27;;;;;;;5.52;51.83;96545.53;5110276;28;20180;-66
2024/01/30 05:44:34;;;;;;;5.00;4.10;;;;;;;5.51;51.85;96553.22;5110405;28;20185;-64
2024/01/30 05:47:03;;;;;;;5.20;3.40;;;;;;;5.49;51.82;96542.31;5110268;28;20212;-64
2024/01/30 05:49:29;;;;;;;6.60;3.90;;;;;;;5.41;51.81;96535.00;5110144;28;20196;-64
2024/01/30 05:51:56;;;;;;;4.20;3.80;;;;;;;5.46;51.85;96543.25;5110305;28;20215;-65
2024/01/30 05:54:23;;;;;;;5.57;3.80;;;;;;;5.13;51.88;96489.59;5110102;28;20216;-64
2024/01/30 05:56:50;;;;;;;8.50;3.67;;;;;;;5.43;51.85;96537.47;5110054;28;20221;-64
2024/01/30 05:59:17;;;;;;;3.67;3.20;;;;;;;5.42;51.73;96539.19;5109970;28;20685;-66
2024/01/30 06:01:47;;;;;;;7.60;3.60;;;;;;;5.41;51.56;96535.00;5110183;28;20193;-65
2024/01/30 06:04:15;;;;;;;5.00;4.03;;;;;;;5.42;51.86;96539.19;5109259;28;20209;-63
2024/01/30 06:06:42;;;;;;;4.07;3.13;;;;;;;5.25;51.62;96508.59;5110174;28;20184;-66
2024/01/30 06:09:09;;;;;;;4.40;3.57;;;;;;;5.42;51.77;96538.38;5109966;28;20197;-69
2024/01/30 06:11:36;;;;;;;4.20;3.70;;;;;;;5.23;51.77;96518.81;5110469;28;20223;-63
2024/01/30 06:14:03;;;;;;;4.20;3.17;;;;;;;5.46;56.54;96534.81;5110130;28;20250;-65
2024/01/30 06:16:30;;;;;;;4.03;3.30;;;;;;;6.35;99.15;96541.31;5110667;28;20549;-65
2024/01/30 06:18:57;;;;;;;3.53;2.80;;;;;;;6.82;98.07;96434.13;5105977;28;20296;-65
2024/01/30 06:21:25;;;;;;;4.90;3.00;;;;;;;8.18;92.77;96499.56;5107580;28;20227;-64
2024/01/30 06:23:52;;;;;;;3.63;3.23;;;;;;;9.20;87.47;96539.28;5109108;28;20193;-65
2024/01/30 06:26:18;;;;;;;6.07;3.43;;;;;;;9.47;82.44;96542.03;5093872;28;20189;-64
2024/01/30 06:28:45;;;;;;;4.33;3.20;;;;;;;9.38;75.30;96534.88;5103156;28;20212;-65
2024/01/30 06:31:12;;;;;;;5.40;3.37;;;;;;;9.37;69.09;96545.16;5108686;28;20208;-65
2024/01/30 06:33:39;;;;;;;9.70;3.20;;;;;;;9.29;65.73;96545.59;5090062;28;20189;-66
2024/01/30 06:36:06;;;;;;;3.53;3.03;;;;;;;9.28;64.64;96543.94;5095142;28;20468;-65
2024/01/30 06:38:34;;;;;;;5.43;3.27;;;;;;;9.40;63.65;96537.34;5093746;28;20254;-64
2024/01/30 06:41:01;;;;;;;6.07;3.10;;;;;;;9.71;62.32;96549.22;5102771;28;20204;-64
2024/01/30 06:43:28;;;;;;;6.17;3.27;;;;;;;9.97;61.02;96550.28;5102708;28;20676;-65
2024/01/30 06:45:55;;;;;;;4.37;3.33;;;;;;;10.32;60.08;96561.09;5107277;28;20181;-64
2024/01/30 06:48:21;;;;;;;5.80;3.40;;;;;;;10.66;59.24;96556.50;5100625;28;20720;-64
2024/01/30 06:50:49;;;;;;;4.07;2.87;;;;;;;11.01;58.16;96544.97;5091665;28;20196;-63
2024/01/30 06:53:16;;;;;;;7.10;2.93;;;;;;;11.49;57.76;96559.91;5095681;28;20262;-65
2024/01/30 06:55:44;;;;;;;3.60;2.97;;;;;;;11.93;56.57;96557.09;5103598;28;20185;-67
2024/01/30 06:58:10;;;;;;;5.30;2.80;;;;;;;12.44;55.96;96558.88;5108448;28;20235;-65
2024/01/30 07:00:37;;;;;;;2.70;2.40;;;;;;;12.97;55.32;96557.78;5102468;28;20182;-66
2024/01/30 07:03:05;;;;;;;4.47;3.13;;;;;;;12.68;54.55;96420.31;5094995;28;20224;-66
2024/01/30 07:05:33;;;;;;;7.03;2.90;;;;;;;14.10;53.66;96566.88;5093206;28;20224;-64
2024/01/30 07:07:59;;;;;;;3.50;2.63;;;;;;;14.64;52.52;96562.91;5102463;28;20201;-64
2024/01/30 07:10:26;;;;;;;5.63;3.13;;;;;;;15.19;51.75;96563.78;5113257;28;20193;-65
2024/01/30 07:12:55;;;;;;;4.27;3.00;;;;;;;15.76;50.68;96560.97;5106143;28;20215;-64
2024/01/30 07:15:22;;;;;;;4.90;2.90;;;;;;;16.26;49.75;96555.19;5107272;28;20251;-65
2024/01/30 07:17:48;;;;;;;3.80;2.40;;;;;;;16.81;48.88;96558.34;5108394;28;20584;-67
2024/01/30 07:20:15;;;;;;;4.03;2.90;;;;;;;17.22;47.72;96541.84;5114015;28;20212;-67
2024/01/30 07:22:42;;;;;;;2.40;2.20;;;;;;;17.80;47.01;96562.66;5112228;28;20188;-66
2024/01/30 07:25:09;;;;;;;2.70;2.50;;;;;;;18.27;46.09;96575.72;5111805;28;20196;-66
2024/01/30 07:27:36;;;;;;;2.63;2.43;;;;;;;18.70;45.39;96576.19;5099283;28;20221;-66
2024/01/30 07:30:05;;;;;;;5.73;2.53;;;;;;;19.10;44.61;96578.47;5101354;28;20213;-65
2024/01/30 07:32:32;;;;;;;3.73;2.70;;;;;;;19.48;43.74;96574.03;5109854;28;20247;-65
2024/01/30 07:34:59;;;;;;;2.73;2.50;;;;;;;19.79;43.54;96566.75;5094949;28;20747;-67
2024/01/30 07:37:26;;;;;;;2.87;2.50;;;;;;;20.13;42.71;96566.06;5095388;28;20197;-64
2024/01/30 07:39:53;;;;;;;2.07;1.93;;;;;;;20.41;41.78;96564.13;5093995;28;20202;-65
2024/01/30 07:42:19;;;;;;;3.97;2.38;;;;;;;20.68;41.65;96564.00;5103069;28;20197;-66
2024/01/30 07:44:46;;;;;;;2.55;2.35;;;;;;;20.89;41.14;96561.00;5098901;28;20201;-66
2024/01/30 07:47:14;;;;;;;2.30;2.10;;;;;;;21.10;40.69;96565.00;5099029;28;20197;-65
2024/01/30 07:49:41;;;;;;;2.90;2.10;;;;;;;21.21;40.30;96560.34;5111437;28;21774;-65
2024/01/30 07:52:08;;;;;;;2.45;2.20;;;;;;;21.34;39.77;96559.91;5107898;27;20622;-66
2024/01/30 07:54:43;;;;;;;2.83;2.22;;;;;;;21.50;39.49;96559.97;5097845;28;20178;-66
2024/01/30 07:57:11;;;;;;;2.30;2.10;;;;;;;21.62;38.86;96557.03;5094839;28;20229;-66
2024/01/30 07:59:37;;;;;;;2.65;2.45;;;;;;;21.68;38.67;96543.38;5107022;28;20200;-65
2024/01/30 08:02:04;;;;;;;2.92;2.35;;;;;;;21.74;38.72;96540.13;5111806;28;20204;-66
2024/01/30 08:04:32;;;;;;;1.90;1.80;;;;;;;21.96;38.07;96562.94;5099661;28;20189;-66
2024/01/30 08:06:59;;;;;;;2.40;2.20;;;;;;;22.00;37.77;96555.59;5096483;28;20193;-67
2024/01/30 08:09:26;;;;;;;2.60;2.40;;;;;;;22.00;37.32;96556.41;5097807;28;20221;-66
2024/01/30 08:11:53;;;;;;;2.38;2.20;;;;;;;21.83;37.41;96557.38;5105852;28;20189;-65
2024/01/30 08:14:20;;;;;;;2.95;2.20;;;;;;;21.52;37.48;96554.59;5096036;28;20186;-67
2024/01/30 08:16:46;;;;;;;2.58;2.38;;;;;;;21.54;36.83;96561.28;5096360;28;20193;-68
2024/01/30 08:19:13;;;;;;;3.28;2.75;;;;;;;21.47;36.51;96560.28;5096132;28;20588;-67
2024/01/30 08:21:42;;;;;;;2.70;2.50;;;;;;;20.91;36.33;96551.28;5094432;28;20186;-66
2024/01/30 08:24:09;;;;;;;2.60;2.40;;;;;;;20.37;36.23;96557.59;5095125;28;20217;-66
2024/01/30 08:26:36;;;;;;;2.53;2.33;;;;;;;19.82;36.07;96557.81;5095905;28;20202;-64
2024/01/30 08:29:04;;;;;;;3.47;2.45;;;;;;;19.28;36.27;96555.16;5099169;28;20208;-66
2024/01/30 08:31:31;;;;;;;2.43;2.23;;;;;;;18.86;36.57;96560.00;5101014;28;20198;-66
2024/01/30 08:33:58;;;;;;;2.40;2.20;;;;;;;18.55;36.41;96568.00;5103919;28;20661;-67
2024/01/30 08:36:26;;;;;;;2.47;2.27;;;;;;;18.00;36.77;96550.53;5110792;28;20185;-67
2024/01/30 08:38:54;;;;;;;2.50;2.30;;;;;;;17.68;36.77;96568.06;5100297;28;20198;-67
2024/01/30 08:41:21;;;;;;;2.47;2.27;;;;;;;17.27;37.02;96565.56;5099714;28;20193;-66
2024/01/30 08:43:47;;;;;;;4.50;2.40;;;;;;;16.96;37.25;96566.56;5105797;28;20181;-65
2024/01/30 08:46:18;;;;;;;2.67;2.47;;;;;;;16.77;37.35;96567.31;5109809;28;20196;-65
2024/01/30 08:48:45;;;;;;;2.87;2.50;;;;;;;16.68;37.00;96571.47;5107413;28;20209;-65
2024/01/30 08:51:11;;;;;;;2.90;2.40;;;;;;;16.46;37.03;96561.28;5110669;28;20192;-65
2024/01/30 08:53:38;;;;;;;2.83;2.60;;;;;;;16.16;37.39;96568.03;5110558;28;20204;-65
2024/01/30 08:56:08;;;;;;;2.73;2.33;;;;;;;15.90;37.51;96569.34;5101129;28;20295;-66
2024/01/30 08:58:34;;;;;;;4.63;2.70;;;;;;;15.70;37.53;96574.34;5091599;28;20190;-65
2024/01/30 09:01:03;;;;;;;3.00;2.70;;;;;;;15.49;37.61;96574.25;5095429;28;20255;-65
2024/01/30 09:03:30;;;;;;;3.20;2.90;;;;;;;15.26;37.80;96570.91;5093263;28;20346;-64
2024/01/30 09:05:57;;;;;;;3.57;3.27;;;;;;;15.10;38.09;96577.38;5104036;28;20303;-63
2024/01/30 09:08:24;;;;;;;3.30;2.77;;;;;;;14.94;38.00;96585.47;5099932;28;20221;-66
2024/01/30 09:10:50;;;;;;;4.13;3.03;;;;;;;14.41;38.20;96513.91;5092288;28;20531;-63
2024/01/30 09:13:19;;;;;;;4.20;3.33;;;;;;;14.74;38.14;96577.53;5101514;28;20734;-64
2024/01/30 09:15:46;;;;;;;6.10;3.60;;;;;;;14.52;38.12;96557.72;5108062;28;20197;-64
2024/01/30 09:18:12;;;;;;;3.37;3.07;;;;;;;14.60;37.96;96570.03;5109683;28;20524;-64
2024/01/30 09:20:39;;;;;;;3.93;3.53;;;;;;;14.65;38.08;96569.69;5109916;28;20254;-65
2024/01/30 09:23:06;;;;;;;4.03;3.27;;;;;;;14.59;38.08;96570.94;5110085;28;20195;-63
2024/01/30 09:25:34;;;;;;;3.37;3.03;;;;;;;14.50;37.88;96571.63;5103443;28;20196;-64
2024/01/30 09:28:01;;;;;;;3.80;3.17;;;;;;;14.39;38.06;96564.72;5101699;28;20574;-65
2024/01/30 09:30:29;;;;;;;5.37;3.50;;;;;;;14.29;38.12;96563.72;5109798;28;20189;-67
2024/01/30 09:32:56;;;;;;;5.03;3.10;;;;;;;14.02;38.12;96535.72;5098909;28;20649;-64
2024/01/30 09:35:22;;;;;;;3.33;3.03;;;;;;;14.03;38.34;96565.66;5103246;28;20185;-65
2024/01/30 09:37:49;;;;;;;3.77;3.20;;;;;;;13.84;38.31;96555.91;5097804;28;20193;-66
2024/01/30 09:40:18;;;;;;;3.63;3.17;;;;;;;13.72;38.34;96557.63;5105972;28;20201;-66
2024/01/30 09:42:49;;;;;;;3.83;2.90;;;;;;;13.58;38.53;96544.13;5102054;28;20505;-64
2024/01/30 09:45:16;;;;;;;4.40;3.53;;;;;;;13.50;38.90;96540.34;5109235;28;20306;-65
2024/01/30 09:47:46;;;;;;;8.13;4.03;;;;;;;13.48;38.69;96544.78;5095406;28;20196;-64
2024/01/30 09:50:14;;;;;;;6.30;3.60;;;;;;;13.39;38.72;96536.94;5093518;28;20208;-65
2024/01/30 09:52:41;;;;;;;3.30;3.00;;;;;;;13.30;38.66;96544.34;5102395;28;20197;-64
2024/01/30 09:55:08;;;;;;;3.43;3.13;;;;;;;13.13;38.74;96536.97;5097583;28;20198;-64
2024/01/30 09:57:35;;;;;;;4.03;3.30;;;;;;;13.04;38.80;96547.91;5110183;28;20224;-66
2024/01/30 10:00:03;;;;;;;3.77;3.37;;;;;;;12.87;38.87;96541.38;5098815;28;20195;-64
2024/01/30 10:02:30;;;;;;;3.90;3.20;;;;;;;12.72;39.16;96550.94;5099147;28;20181;-64
2024/01/30 10:04:58;;;;;;;3.97;3.10;;;;;;;12.40;39.18;96518.94;5091919;28;20201;-64
2024/01/30 10:07:25;;;;;;;4.60;3.30;;;;;;;12.46;39.40;96549.31;5091859;28;20193;-65
2024/01/30 10:09:53;;;;;;;3.80;3.50;;;;;;;12.35;39.27;96546.63;5100980;28;20254;-67
2024/01/30 10:12:19;;;;;;;4.13;3.20;;;;;;;12.20;39.42;96526.22;5109862;28;20441;-66
2024/01/30 10:14:46;;;;;;;6.97;3.83;;;;;;;12.09;39.56;96505.63;5107011;28;20189;-65
2024/01/30 10:17:13;;;;;;;3.30;2.80;;;;;;;12.19;39.44;96522.03;5092909;28;20227;-66
2024/01/30 10:19:41;;;;;;;3.87;3.07;;;;;;;12.18;39.39;96529.84;5093297;28;20204;-66
2024/01/30 10:22:10;;;;;;;3.53;3.17;;;;;;;12.24;39.35;96524.28;5093940;28;20220;-66
2024/01/30 10:24:37;;;;;;;4.03;3.37;;;;;;;12.24;39.17;96530.22;5090856;28;20427;-63
2024/01/30 10:27:06;;;;;;;3.37;3.07;;;;;;;12.19;39.36;96526.34;5091691;28;20541;-64
2024/01/30 10:29:33;;;;;;;7.30;3.10;;;;;;;12.15;39.33;96527.47;5090189;28;20724;-65
2024/01/30 10:32:01;;;;;;;7.17;3.60;;;;;;;12.11;39.42;96531.97;5095699;28;20205;-64
2024/01/30 10:34:27;;;;;;;4.37;3.07;;;;;;;12.14;39.25;96536.09;5103463;28;20193;-67
2024/01/30 10:37:07;;;;;;;4.73;2.83;;;;;;;12.15;39.46;96535.97;5097167;28;20191;-66
2024/01/30 10:39:39;;;;;;;4.90;3.40;;;;;;;12.13;39.45;96530.13;5107208;28;20200;-66
2024/01/30 10:42:07;;;;;;;5.97;3.50;;;;;;;12.11;39.43;96516.59;5092354;28;20201;-67
2024/01/30 10:44:44;;;;;;;4.27;3.30;;;;;;;12.13;39.58;96532.69;5091949;28;20190;-65
2024/01/30 10:47:14;;;;;;;3.07;2.77;;;;;;;12.07;39.46;96522.84;5091354;28;20193;-64
2024/01/30 10:49:42;;;;;;;7.73;3.27;;;;;;;12.09;39.66;96520.16;5090227;28;20316;-66
2024/01/30 10:52:10;;;;;;;3.30;2.97;;;;;;;12.08;39.50;96516.78;5098160;28;20589;-65
2024/01/30 10:54:39;;;;;;;5.60;2.83;;;;;;;12.00;39.66;96521.59;5099551;28;20196;-64
2024/01/30 10:57:07;;;;;;;3.03;2.73;;;;;;;11.89;39.60;96511.22;5112632;28;20345;-65
2024/01/30 10:59:34;;;;;;;3.53;3.07;;;;;;;11.79;39.66;96506.69;5112657;28;20189;-65
2024/01/30 11:02:02;;;;;;;3.53;2.90;;;;;;;11.68;39.85;96491.19;5109910;28;20542;-64
2024/01/30 11:04:36;;;;;;;3.23;3.00;;;;;;;11.49;39.76;96470.25;5095216;28;20197;-65
2024/01/30 11:07:04;;;;;;;3.57;2.93;;;;;;;11.50;40.00;96492.38;5110758;28;20200;-65
2024/01/30 11:09:31;;;;;;;2.80;2.60;;;;;;;11.47;39.78;96505.38;5112289;28;20805;-65
2024/01/30 11:12:01;;;;;;;3.30;2.97;;;;;;;11.40;39.78;96489.59;5112388;28;20613;-66
2024/01/30 11:14:29;;;;;;;3.33;2.63;;;;;;;11.44;39.96;96492.75;5106586;28;20185;-65
2024/01/30 11:16:58;;;;;;;2.93;2.63;;;;;;;11.42;39.71;96494.59;5109818;28;20201;-65
2024/01/30 11:19:26;;;;;;;4.37;3.13;;;;;;;11.34;39.55;96484.03;5110077;28;20288;-64
2024/01/30 11:21:54;;;;;;;2.70;2.50;;;;;;;11.26;39.99;96487.88;5112292;28;20276;-64
2024/01/30 11:24:22;;;;;;;2.70;2.50;;;;;;;11.14;39.76;96468.19;5112822;28;20628;-64
2024/01/30 11:26:50;;;;;;;3.50;2.80;;;;;;;11.18;39.87;96472.22;5112854;28;20193;-64
2024/01/30 11:29:19;;;;;;;4.07;3.07;;;;;;;11.14;40.16;96462.22;5111653;28;20310;-63
2024/01/30 11:31:56;;;;;;;4.77;2.70;;;;;;;11.21;40.01;96489.91;5092869;28;20190;-64
2024/01/30 11:34:23;;;;;;;3.70;2.77;;;;;;;11.15;39.96;96489.50;5095678;28;20188;-64
2024/01/30 11:36:58;;;;;;;3.17;2.87;;;;;;;11.11;40.17;96498.28;5102885;28;20188;-65
2024/01/30 11:39:26;;;;;;;3.40;3.10;;;;;;;10.63;39.99;96424.47;5108348;28;20193;-63